Terminal Aerodrome Forecast
Issued by NWS Newport/Morehead City, NC

Home | Current Version | Previous Version | Graphics & Text | Print | Product List | Glossary On
Versions: 1 2 3 4 5 6 7 8 9 10 11 12 13 14 15 16 17 18 19 20 21 22 23 24 25 26
000
FTUS42 KMHX 201600 AAC
TAFEWN
TAF AMD
KEWN 201603Z 2016/2112 02005KT P6SM SCT025
      TEMPO 2016/2017 BKN025
     FM201900 VRB05KT P6SM VCTS BKN040CB
     FM210000 VRB02KT P6SM SCT200
     FM210600 VRB02KT 4SM BR SKC=

USA.gov is the U.S. government's official web portal to all federal, state and local government web resources and services.